createdAt,value
2018-09-19T00:02:16.504Z,51.80
2018-09-19T00:04:45.067Z,52.37
2018-09-19T00:07:13.631Z,51.95
2018-09-19T00:09:42.290Z,51.70
2018-09-19T00:12:11.274Z,51.64
2018-09-19T00:14:39.825Z,52.16
2018-09-19T00:17:08.481Z,51.53
2018-09-19T00:19:37.059Z,51.82
2018-09-19T00:22:05.620Z,51.55
2018-09-19T00:24:34.199Z,51.55
2018-09-19T00:27:02.755Z,51.41
2018-09-19T00:29:31.375Z,52.39
2018-09-19T00:32:00.043Z,52.34
2018-09-19T00:34:28.605Z,52.17
2018-09-19T00:36:58.012Z,52.77
2018-09-19T00:39:26.678Z,52.21
2018-09-19T00:41:55.598Z,51.91
2018-09-19T00:44:24.237Z,51.94
2018-09-19T00:46:52.901Z,52.59
2018-09-19T00:49:21.454Z,52.71
2018-09-19T00:51:50.104Z,52.54
2018-09-19T00:54:18.679Z,51.95
2018-09-19T00:56:47.222Z,52.57
2018-09-19T00:59:15.772Z,52.54
2018-09-19T01:01:44.765Z,52.38
2018-09-19T01:04:13.295Z,52.57
2018-09-19T01:06:41.847Z,52.52
2018-09-19T01:09:10.770Z,52.30
2018-09-19T01:11:39.896Z,52.62
2018-09-19T01:14:08.432Z,52.65
2018-09-19T01:16:37.056Z,52.75
2018-09-19T01:19:05.713Z,52.71
2018-09-19T01:21:34.307Z,53.36
2018-09-19T01:24:03.000Z,53.17
2018-09-19T01:26:31.552Z,53.04
2018-09-19T01:29:00.107Z,52.74
2018-09-19T01:31:28.867Z,53.62
2018-09-19T01:33:58.286Z,53.97
2018-09-19T01:36:26.834Z,54.29
2018-09-19T01:38:55.519Z,54.59
2018-09-19T01:41:24.079Z,54.73
2018-09-19T01:43:52.612Z,55.25
2018-09-19T01:46:21.330Z,54.54
2018-09-19T01:48:49.847Z,55.38
2018-09-19T01:51:18.398Z,54.94
2018-09-19T01:53:47.047Z,55.14
2018-09-19T01:56:15.991Z,55.78
2018-09-19T01:58:44.538Z,56.00
2018-09-19T02:01:13.126Z,55.48
2018-09-19T02:03:42.183Z,55.62
2018-09-19T02:06:10.740Z,55.86
2018-09-19T02:08:39.396Z,55.26
2018-09-19T02:11:07.943Z,55.19
2018-09-19T02:13:36.491Z,55.69
2018-09-19T02:16:05.477Z,55.57
2018-09-19T02:18:34.016Z,55.54
2018-09-19T02:21:02.945Z,55.01
2018-09-19T02:23:31.569Z,55.33
2018-09-19T02:26:00.115Z,55.52
2018-09-19T02:28:28.784Z,55.36
2018-09-19T02:30:57.341Z,55.67
2018-09-19T02:33:26.311Z,54.87
2018-09-19T02:35:54.880Z,54.75
2018-09-19T02:38:23.582Z,54.79
2018-09-19T02:40:52.146Z,54.60
2018-09-19T02:43:20.685Z,54.27
2018-09-19T02:45:49.963Z,54.59
2018-09-19T02:48:18.498Z,54.69
2018-09-19T02:50:47.422Z,53.93
2018-09-19T02:53:16.067Z,53.94
2018-09-19T02:55:47.674Z,54.14
2018-09-19T02:58:16.331Z,54.88
2018-09-19T03:00:44.903Z,54.93
2018-09-19T03:03:13.456Z,54.42
2018-09-19T03:05:42.171Z,54.35
2018-09-19T03:08:10.730Z,54.95
2018-09-19T03:10:39.275Z,55.11
2018-09-19T03:13:08.334Z,54.97
2018-09-19T03:15:36.944Z,55.12
2018-09-19T03:18:06.163Z,54.91
2018-09-19T03:20:34.779Z,54.69
2018-09-19T03:23:03.328Z,54.37
2018-09-19T03:25:31.875Z,54.18
2018-09-19T03:28:00.727Z,53.98
2018-09-19T03:30:29.287Z,54.26
2018-09-19T03:32:57.867Z,54.90
2018-09-19T03:35:26.574Z,54.25
2018-09-19T03:37:55.618Z,54.64
2018-09-19T03:40:24.399Z,54.29
2018-09-19T03:42:52.993Z,54.78
2018-09-19T03:45:21.553Z,54.52
2018-09-19T03:47:50.138Z,55.08
2018-09-19T03:50:18.817Z,54.99
2018-09-19T03:52:47.361Z,54.71
2018-09-19T03:55:15.910Z,54.65
2018-09-19T03:57:44.709Z,54.78
2018-09-19T04:00:13.267Z,54.86
2018-09-19T04:02:42.167Z,55.05
2018-09-19T04:05:10.845Z,54.54
2018-09-19T04:07:39.406Z,55.13
2018-09-19T04:10:07.996Z,55.04
2018-09-19T04:12:37.204Z,54.90
2018-09-19T04:15:05.812Z,54.94
2018-09-19T04:17:34.421Z,54.42
2018-09-19T04:20:02.984Z,54.41
2018-09-19T04:22:31.515Z,54.51
2018-09-19T04:25:00.073Z,54.90
2018-09-19T04:27:28.678Z,54.67
2018-09-19T04:29:57.235Z,54.69
2018-09-19T04:32:25.847Z,54.81
2018-09-19T04:34:54.399Z,54.49
2018-09-19T04:37:22.947Z,55.11
2018-09-19T04:39:51.507Z,55.00
2018-09-19T04:42:20.535Z,55.41
2018-09-19T04:44:49.092Z,56.04
2018-09-19T04:47:17.704Z,55.75
2018-09-19T04:49:46.595Z,55.64
2018-09-19T04:52:15.153Z,55.29
2018-09-19T04:54:43.709Z,55.54
2018-09-19T04:57:12.294Z,55.37
2018-09-19T04:59:40.867Z,55.00
2018-09-19T05:02:09.437Z,55.01
2018-09-19T05:04:38.024Z,55.27
2018-09-19T05:07:06.613Z,55.27
2018-09-19T05:09:35.182Z,55.12
2018-09-19T05:12:04.320Z,55.26
2018-09-19T05:14:32.875Z,54.74
2018-09-19T05:17:01.440Z,54.87
2018-09-19T05:19:30.100Z,53.96
2018-09-19T05:21:59.353Z,54.04
2018-09-19T05:24:28.357Z,54.18
2018-09-19T05:26:56.995Z,53.69
2018-09-19T05:29:25.536Z,53.81
2018-09-19T05:31:54.117Z,54.03
2018-09-19T05:34:22.793Z,54.44
2018-09-19T05:36:51.348Z,53.93
2018-09-19T05:39:19.894Z,53.90
2018-09-19T05:41:48.487Z,53.71
2018-09-19T05:44:17.032Z,53.68
2018-09-19T05:46:45.589Z,54.13
2018-09-19T05:49:14.211Z,53.26
2018-09-19T05:51:42.763Z,52.89
2018-09-19T05:54:11.311Z,52.78
2018-09-19T05:56:39.966Z,51.75
2018-09-19T05:59:08.509Z,50.91
2018-09-19T06:01:37.063Z,50.89
2018-09-19T06:04:05.670Z,50.86
2018-09-19T06:06:34.532Z,50.42
2018-09-19T06:09:03.153Z,49.52
2018-09-19T06:11:31.819Z,49.11
2018-09-19T06:14:00.367Z,49.60
2018-09-19T06:16:28.911Z,49.39
2018-09-19T06:18:57.579Z,48.35
2018-09-19T06:21:26.163Z,48.99
2018-09-19T06:23:54.699Z,48.38
2018-09-19T06:26:23.363Z,48.34
2018-09-19T06:28:51.911Z,48.01
2018-09-19T06:31:20.497Z,47.73
2018-09-19T06:33:49.123Z,46.53
2018-09-19T06:36:17.677Z,46.01
2018-09-19T06:38:46.220Z,45.09
2018-09-19T06:41:14.845Z,44.97
2018-09-19T06:43:43.399Z,44.51
2018-09-19T06:46:11.977Z,44.57
2018-09-19T06:48:40.629Z,44.10
2018-09-19T06:51:09.175Z,43.52
2018-09-19T06:53:37.735Z,43.05
2018-09-19T06:56:06.354Z,42.71
2018-09-19T06:58:34.900Z,42.52
2018-09-19T07:01:04.187Z,41.88
2018-09-19T07:03:32.868Z,41.85
2018-09-19T07:06:01.433Z,42.18
2018-09-19T07:08:29.983Z,41.29
2018-09-19T07:10:58.614Z,40.53
2018-09-19T07:13:27.172Z,40.79
2018-09-19T07:15:55.729Z,39.85
2018-09-19T07:18:24.352Z,39.36
2018-09-19T07:20:52.921Z,39.72
2018-09-19T07:23:21.479Z,38.76
2018-09-19T07:25:50.096Z,38.39
2018-09-19T07:28:19.119Z,38.15
2018-09-19T07:30:47.757Z,37.87
2018-09-19T07:33:16.359Z,36.64
2018-09-19T07:35:44.924Z,35.80
2018-09-19T07:38:13.871Z,35.34
2018-09-19T07:40:42.506Z,35.31
2018-09-19T07:43:11.107Z,35.45
2018-09-19T07:45:39.668Z,35.17
2018-09-19T07:48:08.245Z,35.71
2018-09-19T07:50:36.831Z,35.25
2018-09-19T07:53:05.417Z,35.36
2018-09-19T07:55:35.011Z,34.96
2018-09-19T07:58:03.644Z,34.92
2018-09-19T08:00:32.249Z,33.67
2018-09-19T08:03:00.811Z,33.36
2018-09-19T08:05:29.360Z,33.18
2018-09-19T08:07:57.914Z,32.65
2018-09-19T08:10:26.603Z,32.13
2018-09-19T08:12:55.152Z,31.51
2018-09-19T08:15:23.695Z,31.88
2018-09-19T08:17:52.271Z,31.01
2018-09-19T08:20:20.863Z,31.35
2018-09-19T08:22:49.511Z,30.92
2018-09-19T08:25:18.057Z,30.41
2018-09-19T08:27:46.606Z,29.80
2018-09-19T08:30:15.173Z,29.12
2018-09-19T08:32:43.750Z,28.73
2018-09-19T08:35:12.329Z,29.95
2018-09-19T08:37:40.987Z,29.28
2018-09-19T08:40:09.664Z,28.25
2018-09-19T08:42:38.243Z,28.43
2018-09-19T08:45:07.442Z,28.28
2018-09-19T08:47:36.080Z,27.41
2018-09-19T08:50:04.991Z,27.19
2018-09-19T08:52:33.534Z,26.56
2018-09-19T08:55:02.213Z,25.97
2018-09-19T08:57:30.787Z,25.37
2018-09-19T08:59:59.751Z,25.26
2018-09-19T09:02:28.735Z,24.24
2018-09-19T09:04:57.627Z,24.16
2018-09-19T09:07:26.171Z,23.60
2018-09-19T09:09:54.781Z,23.41
2018-09-19T09:12:23.381Z,23.65
2018-09-19T09:14:52.023Z,23.58
2018-09-19T09:17:20.708Z,23.67
2018-09-19T09:19:49.286Z,23.78
2018-09-19T09:22:17.937Z,24.06
2018-09-19T09:24:46.615Z,23.33
2018-09-19T09:27:15.208Z,23.05
2018-09-19T09:29:43.796Z,23.56
2018-09-19T09:32:12.478Z,24.75
2018-09-19T09:34:41.021Z,23.43
2018-09-19T09:37:09.567Z,22.79
2018-09-19T09:39:38.169Z,22.88
2018-09-19T09:42:06.716Z,22.28
2018-09-19T09:44:35.729Z,23.31
2018-09-19T09:47:04.400Z,22.64
2018-09-19T09:49:32.959Z,22.62
2018-09-19T09:52:01.524Z,21.96
2018-09-19T09:54:32.607Z,21.91
2018-09-19T09:57:01.612Z,21.63
2018-09-19T09:59:30.172Z,21.47
2018-09-19T10:01:58.745Z,20.52
2018-09-19T10:04:28.555Z,20.88
2018-09-19T10:06:57.106Z,20.33
2018-09-19T10:09:26.035Z,20.59
2018-09-19T10:11:54.595Z,20.18
2018-09-19T10:14:23.151Z,20.32
2018-09-19T10:16:51.740Z,20.16
2018-09-19T10:19:20.301Z,20.79
2018-09-19T10:21:49.476Z,20.24
2018-09-19T10:24:18.471Z,19.66
2018-09-19T10:26:47.086Z,19.64
2018-09-19T10:29:15.635Z,19.66
2018-09-19T10:31:44.325Z,19.37
2018-09-19T10:34:12.880Z,19.84
2018-09-19T10:36:41.441Z,19.51
2018-09-19T10:39:10.888Z,19.18
2018-09-19T10:41:39.484Z,19.41
2018-09-19T10:44:08.114Z,19.27
2018-09-19T10:46:36.691Z,19.18
2018-09-19T10:49:05.678Z,19.98
2018-09-19T10:51:34.361Z,20.10
2018-09-19T10:54:02.939Z,20.69
2018-09-19T10:56:31.508Z,20.78
2018-09-19T10:59:00.069Z,20.96
2018-09-19T11:01:28.740Z,21.80
2018-09-19T11:03:57.325Z,21.65
2018-09-19T11:06:25.923Z,22.62
2018-09-19T11:08:54.487Z,22.99
2018-09-19T11:11:23.047Z,23.35
2018-09-19T11:13:51.627Z,23.28
2018-09-19T11:16:20.247Z,23.23
2018-09-19T11:18:48.799Z,21.83
2018-09-19T11:21:17.372Z,20.97
2018-09-19T11:23:45.992Z,19.22
2018-09-19T11:26:14.545Z,17.59
2018-09-19T11:28:43.206Z,16.97
2018-09-19T11:31:11.919Z,15.28
2018-09-19T11:33:40.901Z,14.54
2018-09-19T11:36:09.443Z,13.62
2018-09-19T11:38:38.029Z,13.37
2018-09-19T11:41:06.583Z,13.03
2018-09-19T11:43:35.152Z,13.02
2018-09-19T11:46:03.887Z,12.30
2018-09-19T11:48:32.490Z,11.49
2018-09-19T11:51:01.493Z,11.60
2018-09-19T11:53:31.509Z,11.11
2018-09-19T11:56:01.229Z,11.21
2018-09-19T11:58:30.636Z,11.40
2018-09-19T12:01:00.405Z,12.67
2018-09-19T12:03:29.719Z,14.29
2018-09-19T12:05:58.301Z,16.49
2018-09-19T12:08:26.870Z,18.61
2018-09-19T12:10:55.548Z,20.01
2018-09-19T12:13:24.287Z,20.75
2018-09-19T12:15:52.835Z,21.60
2018-09-19T12:18:21.499Z,22.18
2018-09-19T12:20:50.536Z,21.79
2018-09-19T12:23:19.111Z,22.35
2018-09-19T12:25:48.107Z,22.80
2018-09-19T12:28:16.687Z,23.21
2018-09-19T12:30:45.256Z,24.04
2018-09-19T12:33:13.966Z,23.85
2018-09-19T12:35:42.500Z,24.04
2018-09-19T12:38:11.329Z,23.91
2018-09-19T12:40:40.283Z,24.58
2018-09-19T12:43:08.855Z,24.86
2018-09-19T12:45:37.803Z,25.21
2018-09-19T12:48:06.724Z,24.83
2018-09-19T12:50:36.095Z,24.83
2018-09-19T12:53:04.652Z,24.64
2018-09-19T12:55:33.648Z,24.51
2018-09-19T12:58:02.200Z,25.04
2018-09-19T13:00:30.757Z,24.96
2018-09-19T13:02:59.407Z,25.02
2018-09-19T13:05:27.954Z,25.45
2018-09-19T13:07:56.515Z,25.88
2018-09-19T13:10:25.088Z,26.20
2018-09-19T13:12:53.643Z,26.45
2018-09-19T13:15:22.191Z,26.01
2018-09-19T13:17:50.956Z,26.18
2018-09-19T13:20:19.530Z,26.23
2018-09-19T13:22:48.127Z,26.74
2018-09-19T13:25:16.712Z,26.38
2018-09-19T13:27:45.256Z,25.48
2018-09-19T13:30:13.808Z,25.11
2018-09-19T13:32:42.475Z,25.65
2018-09-19T13:35:11.500Z,25.77
2018-09-19T13:37:40.059Z,24.99
2018-09-19T13:40:09.632Z,25.08
2018-09-19T13:42:38.176Z,24.85
2018-09-19T13:45:07.103Z,25.45
2018-09-19T13:47:35.789Z,24.73
2018-09-19T13:50:17.721Z,25.57
2018-09-19T13:52:46.723Z,25.50
2018-09-19T13:55:15.286Z,25.52
2018-09-19T13:57:43.840Z,26.04
2018-09-19T14:00:12.720Z,26.71
2018-09-19T14:02:41.292Z,27.39
2018-09-19T14:05:09.874Z,26.82
2018-09-19T14:07:38.472Z,27.75
2018-09-19T14:10:07.039Z,27.70
2018-09-19T14:12:35.651Z,27.42
2018-09-19T14:15:04.300Z,27.76
2018-09-19T14:17:33.271Z,27.78
2018-09-19T14:20:01.836Z,27.29
2018-09-19T14:22:30.512Z,28.01
2018-09-19T14:24:59.092Z,27.24
2018-09-19T14:27:27.640Z,27.25
2018-09-19T14:29:56.300Z,27.18
2018-09-19T14:32:25.006Z,27.53
2018-09-19T14:34:54.303Z,27.53
2018-09-19T14:37:23.091Z,27.78
2018-09-19T14:39:51.652Z,27.60
2018-09-19T14:42:20.356Z,27.55
2018-09-19T14:44:49.052Z,27.46
2018-09-19T14:47:17.608Z,27.71
2018-09-19T14:49:46.812Z,27.83
2018-09-19T14:52:15.394Z,27.97
2018-09-19T14:54:43.957Z,28.17
2018-09-19T14:57:12.516Z,27.89
2018-09-19T14:59:41.108Z,27.92
2018-09-19T15:02:10.123Z,28.49
2018-09-19T15:04:38.695Z,28.28
2018-09-19T15:07:07.368Z,28.16
2018-09-19T15:09:35.924Z,28.59
2018-09-19T15:12:04.476Z,28.84
2018-09-19T15:14:33.079Z,28.60
2018-09-19T15:17:02.134Z,28.26
2018-09-19T15:19:30.749Z,28.07
2018-09-19T15:21:59.346Z,28.15
2018-09-19T15:24:27.981Z,28.04
2018-09-19T15:26:56.986Z,28.39
2018-09-19T15:29:25.971Z,28.73
2018-09-19T15:31:54.584Z,28.53
2018-09-19T15:34:23.443Z,28.27
2018-09-19T15:36:52.140Z,28.77
2018-09-19T15:39:20.721Z,29.00
2018-09-19T15:41:49.301Z,29.84
2018-09-19T15:44:18.001Z,28.94
2018-09-19T15:46:47.089Z,28.85
2018-09-19T15:49:15.664Z,28.59
2018-09-19T15:51:44.960Z,29.52
2018-09-19T15:54:13.995Z,29.75
2018-09-19T15:56:42.548Z,29.36
2018-09-19T15:59:11.540Z,29.83
2018-09-19T16:01:40.100Z,29.60
2018-09-19T16:04:08.728Z,29.25
2018-09-19T16:06:37.335Z,30.29
2018-09-19T16:09:08.351Z,29.99
2018-09-19T16:11:36.930Z,29.88
2018-09-19T16:14:05.496Z,29.79
2018-09-19T16:16:34.052Z,29.57
2018-09-19T16:19:02.891Z,29.86
2018-09-19T16:21:31.443Z,29.92
2018-09-19T16:24:00.044Z,30.07
2018-09-19T16:26:28.733Z,29.89
2018-09-19T16:28:57.829Z,29.60
2018-09-19T16:31:26.417Z,29.92
2018-09-19T16:33:55.058Z,30.09
2018-09-19T16:36:23.620Z,30.52
2018-09-19T16:38:52.244Z,30.35
2018-09-19T16:41:20.815Z,30.56
2018-09-19T16:43:49.408Z,31.73
2018-09-19T16:46:17.948Z,31.69
2018-09-19T16:48:46.612Z,31.68
2018-09-19T16:51:15.180Z,31.11
2018-09-19T16:53:43.724Z,31.44
2018-09-19T16:56:12.415Z,31.28
2018-09-19T16:58:41.012Z,31.36
2018-09-19T17:01:09.552Z,31.85
2018-09-19T17:03:38.510Z,32.10
2018-09-19T17:06:07.187Z,31.99
2018-09-19T17:08:35.730Z,32.06
2018-09-19T17:11:04.763Z,32.67
2018-09-19T17:13:33.331Z,32.74
2018-09-19T17:16:01.895Z,33.04
2018-09-19T17:18:30.488Z,33.07
2018-09-19T17:20:59.035Z,32.59
2018-09-19T17:23:28.163Z,32.96
2018-09-19T17:25:56.845Z,32.77
2018-09-19T17:28:25.396Z,33.09
2018-09-19T17:30:53.934Z,33.13
2018-09-19T17:33:22.901Z,33.13
2018-09-19T17:35:51.479Z,33.01
2018-09-19T17:38:20.251Z,33.73
2018-09-19T17:40:49.794Z,33.70
2018-09-19T17:43:18.344Z,34.04
2018-09-19T17:45:47.436Z,33.63
2018-09-19T17:48:16.512Z,33.26
2018-09-19T17:50:45.076Z,33.95
2018-09-19T17:53:13.623Z,35.23
2018-09-19T17:55:42.367Z,35.61
2018-09-19T17:58:10.975Z,35.81
2018-09-19T18:00:39.541Z,36.82
2018-09-19T18:03:08.232Z,36.78
2018-09-19T18:05:36.807Z,37.44
2018-09-19T18:08:05.423Z,37.63
2018-09-19T18:10:33.957Z,37.10
2018-09-19T18:13:02.495Z,36.80
2018-09-19T18:15:31.059Z,37.39
2018-09-19T18:17:59.619Z,37.58
2018-09-19T18:20:28.232Z,38.57
2018-09-19T18:22:56.819Z,38.46
2018-09-19T18:25:25.458Z,39.34
2018-09-19T18:27:53.999Z,39.71
2018-09-19T18:30:22.564Z,39.56
2018-09-19T18:32:51.251Z,40.25
2018-09-19T18:35:19.791Z,39.23
2018-09-19T18:37:48.340Z,39.97
2018-09-19T18:40:17.050Z,39.98
2018-09-19T18:42:45.687Z,40.13
2018-09-19T18:45:14.275Z,41.11
2018-09-19T18:47:43.243Z,40.96
2018-09-19T18:50:11.788Z,41.34
2018-09-19T18:52:40.330Z,41.33
2018-09-19T18:55:08.948Z,40.92
2018-09-19T18:57:37.563Z,41.25
2018-09-19T19:00:06.141Z,41.36
2018-09-19T19:02:34.779Z,40.99
2018-09-19T19:05:03.440Z,41.18
2018-09-19T19:07:32.028Z,41.39
2018-09-19T19:10:00.688Z,41.47
2018-09-19T19:12:29.240Z,41.20
2018-09-19T19:14:57.807Z,41.65
2018-09-19T19:17:26.989Z,42.01
2018-09-19T19:19:55.555Z,41.72
2018-09-19T19:22:24.120Z,41.92
2018-09-19T19:24:52.864Z,42.02
2018-09-19T19:27:21.429Z,42.68
2018-09-19T19:29:49.974Z,42.33
2018-09-19T19:32:19.002Z,42.53
2018-09-19T19:34:47.544Z,42.82
2018-09-19T19:37:16.087Z,42.60
2018-09-19T19:39:45.055Z,42.86
2018-09-19T19:42:13.604Z,42.81
2018-09-19T19:44:42.165Z,43.28
2018-09-19T19:47:10.751Z,43.40
2018-09-19T19:49:39.328Z,43.46
2018-09-19T19:52:07.876Z,43.92
2018-09-19T19:54:36.536Z,43.88
2018-09-19T19:57:05.183Z,43.76
2018-09-19T19:59:33.732Z,44.44
2018-09-19T20:02:02.319Z,44.41
2018-09-19T20:04:31.355Z,43.97
2018-09-19T20:06:59.920Z,44.69
2018-09-19T20:09:29.008Z,44.74
2018-09-19T20:11:57.531Z,44.42
2018-09-19T20:14:26.759Z,44.51
2018-09-19T20:16:55.423Z,44.50
2018-09-19T20:19:23.952Z,44.89
2018-09-19T20:21:52.472Z,45.06
2018-09-19T20:24:21.135Z,45.83
2018-09-19T20:26:49.696Z,46.11
2018-09-19T20:29:18.215Z,46.31
2018-09-19T20:31:46.783Z,46.29
2018-09-19T20:34:15.420Z,46.74
2018-09-19T20:36:43.876Z,46.87
2018-09-19T20:39:12.887Z,46.28
2018-09-19T20:41:41.848Z,46.47
2018-09-19T20:44:10.383Z,47.12
2018-09-19T20:46:39.047Z,47.25
2018-09-19T20:49:07.719Z,47.24
2018-09-19T20:51:36.677Z,48.16
2018-09-19T20:54:05.248Z,48.11
2018-09-19T20:56:33.774Z,47.72
2018-09-19T20:59:02.312Z,47.91
2018-09-19T21:01:30.866Z,48.18
2018-09-19T21:03:59.408Z,48.28
2018-09-19T21:06:27.935Z,48.46
2018-09-19T21:08:56.972Z,48.08
2018-09-19T21:11:25.588Z,48.81
2018-09-19T21:13:54.628Z,49.11
2018-09-19T21:16:23.579Z,48.93
2018-09-19T21:18:52.319Z,49.18
2018-09-19T21:21:21.308Z,49.46
2018-09-19T21:23:49.919Z,50.14
2018-09-19T21:26:18.504Z,50.11
2018-09-19T21:28:47.080Z,50.78
2018-09-19T21:31:15.708Z,51.08
2018-09-19T21:33:45.079Z,50.51
2018-09-19T21:36:13.632Z,50.75
2018-09-19T21:38:42.688Z,51.33
2018-09-19T21:41:11.644Z,51.35
2018-09-19T21:43:40.196Z,51.90
2018-09-19T21:46:09.197Z,51.63
2018-09-19T21:48:37.848Z,52.41
2018-09-19T21:51:07.240Z,52.37
2018-09-19T21:53:36.230Z,52.51
2018-09-19T21:56:05.036Z,51.87
2018-09-19T21:58:33.590Z,51.78
2018-09-19T22:01:08.300Z,52.08
2018-09-19T22:03:37.994Z,52.20
2018-09-19T22:06:06.559Z,52.85
2018-09-19T22:08:35.867Z,53.22
2018-09-19T22:11:04.788Z,52.63
2018-09-19T22:16:01.729Z,52.97
2018-09-19T22:18:30.753Z,52.51
2018-09-19T22:20:59.304Z,52.84
2018-09-19T22:23:27.979Z,53.02
2018-09-19T22:25:56.635Z,52.18
2018-09-19T22:28:26.164Z,52.42
2018-09-19T22:30:54.839Z,52.47
2018-09-19T22:33:23.392Z,53.16
2018-09-19T22:35:51.947Z,53.34
2018-09-19T22:38:20.540Z,53.76
2018-09-19T22:40:49.119Z,53.83
2018-09-19T22:43:17.750Z,53.82
2018-09-19T22:45:46.371Z,53.75
2018-09-19T22:48:14.928Z,53.61
2018-09-19T22:50:43.488Z,53.21
2018-09-19T22:53:12.663Z,53.84
2018-09-19T22:55:41.280Z,54.11
2018-09-19T22:58:10.104Z,53.57
2018-09-19T23:00:39.621Z,54.02
2018-09-19T23:03:08.184Z,53.46
2018-09-19T23:05:36.759Z,53.46
2018-09-19T23:08:05.480Z,53.42
2018-09-19T23:10:34.044Z,53.83
2018-09-19T23:13:02.616Z,53.88
2018-09-19T23:15:31.297Z,54.40
2018-09-19T23:17:59.869Z,54.58
2018-09-19T23:20:28.420Z,54.48
2018-09-19T23:22:57.024Z,55.11
2018-09-19T23:25:25.960Z,54.43
2018-09-19T23:27:54.511Z,55.27
2018-09-19T23:30:23.187Z,54.85
2018-09-19T23:32:51.741Z,54.91
2018-09-19T23:35:20.287Z,55.63
2018-09-19T23:37:49.548Z,55.13
2018-09-19T23:40:19.031Z,55.63
2018-09-19T23:42:47.656Z,55.87
2018-09-19T23:45:16.243Z,56.00
2018-09-19T23:47:44.789Z,56.21
2018-09-19T23:50:13.351Z,56.27
2018-09-19T23:52:41.919Z,55.73
2018-09-19T23:55:10.480Z,55.88
2018-09-19T23:57:39.048Z,56.34
